sensor_id;sensor_type;location;lat;lon;timestamp;temperature;humidity
15656;DHT22;7928;43.614;1.456;2024-02-23T00:00:31;8.10;1.00
15656;DHT22;7928;43.614;1.456;2024-02-23T00:02:58;8.10;1.00
15656;DHT22;7928;43.614;1.456;2024-02-23T00:05:25;8.00;1.00
15656;DHT22;7928;43.614;1.456;2024-02-23T00:07:52;8.00;1.00
15656;DHT22;7928;43.614;1.456;2024-02-23T00:10:20;8.00;1.00
15656;DHT22;7928;43.614;1.456;2024-02-23T00:12:47;8.00;1.00
15656;DHT22;7928;43.614;1.456;2024-02-23T00:15:14;8.00;1.00
15656;DHT22;7928;43.614;1.456;2024-02-23T00:17:41;7.90;1.00
15656;DHT22;7928;43.614;1.456;2024-02-23T00:20:09;7.90;1.00
15656;DHT22;7928;43.614;1.456;2024-02-23T00:22:37;7.90;1.00
15656;DHT22;7928;43.614;1.456;2024-02-23T00:25:05;7.90;1.00
15656;DHT22;7928;43.614;1.456;2024-02-23T00:27:33;7.90;1.00
15656;DHT22;7928;43.614;1.456;2024-02-23T00:30:00;7.80;1.00
15656;DHT22;7928;43.614;1.456;2024-02-23T00:32:27;7.80;1.00
15656;DHT22;7928;43.614;1.456;2024-02-23T00:34:56;7.80;1.00
15656;DHT22;7928;43.614;1.456;2024-02-23T00:37:23;7.60;1.00
15656;DHT22;7928;43.614;1.456;2024-02-23T00:39:50;7.70;1.00
15656;DHT22;7928;43.614;1.456;2024-02-23T00:42:17;7.70;1.00
15656;DHT22;7928;43.614;1.456;2024-02-23T00:44:47;7.70;1.00
15656;DHT22;7928;43.614;1.456;2024-02-23T00:47:14;7.60;1.00
15656;DHT22;7928;43.614;1.456;2024-02-23T00:49:42;7.60;1.00
15656;DHT22;7928;43.614;1.456;2024-02-23T00:52:09;7.60;1.00
15656;DHT22;7928;43.614;1.456;2024-02-23T00:54:36;7.60;1.00
15656;DHT22;7928;43.614;1.456;2024-02-23T00:57:03;7.60;1.00
15656;DHT22;7928;43.614;1.456;2024-02-23T00:59:30;7.60;1.00
15656;DHT22;7928;43.614;1.456;2024-02-23T01:01:59;7.50;1.00
15656;DHT22;7928;43.614;1.456;2024-02-23T01:04:26;7.50;1.00
15656;DHT22;7928;43.614;1.456;2024-02-23T01:06:53;7.50;1.00
15656;DHT22;7928;43.614;1.456;2024-02-23T01:09:20;7.50;1.00
15656;DHT22;7928;43.614;1.456;2024-02-23T01:11:47;7.40;1.00
15656;DHT22;7928;43.614;1.456;2024-02-23T01:14:14;7.40;1.00
15656;DHT22;7928;43.614;1.456;2024-02-23T01:16:41;7.40;1.00
15656;DHT22;7928;43.614;1.456;2024-02-23T01:19:10;7.40;1.00
15656;DHT22;7928;43.614;1.456;2024-02-23T01:21:37;7.40;1.00
15656;DHT22;7928;43.614;1.456;2024-02-23T01:24:04;7.40;1.00
15656;DHT22;7928;43.614;1.456;2024-02-23T01:26:31;7.40;1.00
15656;DHT22;7928;43.614;1.456;2024-02-23T01:28:58;7.40;1.00
15656;DHT22;7928;43.614;1.456;2024-02-23T01:31:25;7.40;1.00
15656;DHT22;7928;43.614;1.456;2024-02-23T01:33:52;7.40;1.00
15656;DHT22;7928;43.614;1.456;2024-02-23T01:36:21;7.40;1.00
15656;DHT22;7928;43.614;1.456;2024-02-23T01:38:48;7.40;1.00
15656;DHT22;7928;43.614;1.456;2024-02-23T01:41:15;7.40;1.00
15656;DHT22;7928;43.614;1.456;2024-02-23T01:43:42;7.40;1.00
15656;DHT22;7928;43.614;1.456;2024-02-23T01:46:09;7.40;1.00
15656;DHT22;7928;43.614;1.456;2024-02-23T01:48:36;7.40;1.00
15656;DHT22;7928;43.614;1.456;2024-02-23T01:51:03;7.40;1.00
15656;DHT22;7928;43.614;1.456;2024-02-23T01:53:32;7.40;1.00
15656;DHT22;7928;43.614;1.456;2024-02-23T01:55:59;7.40;1.00
15656;DHT22;7928;43.614;1.456;2024-02-23T01:58:28;7.40;1.00
15656;DHT22;7928;43.614;1.456;2024-02-23T02:00:56;7.40;1.00
15656;DHT22;7928;43.614;1.456;2024-02-23T02:03:23;7.40;1.00
15656;DHT22;7928;43.614;1.456;2024-02-23T02:05:51;7.40;1.00
15656;DHT22;7928;43.614;1.456;2024-02-23T02:08:19;7.40;1.00
15656;DHT22;7928;43.614;1.456;2024-02-23T02:10:48;7.40;1.00
15656;DHT22;7928;43.614;1.456;2024-02-23T02:13:15;7.40;1.00
15656;DHT22;7928;43.614;1.456;2024-02-23T02:15:42;7.30;1.00
15656;DHT22;7928;43.614;1.456;2024-02-23T02:18:10;7.30;1.00
15656;DHT22;7928;43.614;1.456;2024-02-23T02:20:37;7.30;1.00
15656;DHT22;7928;43.614;1.456;2024-02-23T02:23:07;7.30;1.00
15656;DHT22;7928;43.614;1.456;2024-02-23T02:25:36;7.30;1.00
15656;DHT22;7928;43.614;1.456;2024-02-23T02:28:06;7.30;1.00
15656;DHT22;7928;43.614;1.456;2024-02-23T02:30:34;7.30;1.00
15656;DHT22;7928;43.614;1.456;2024-02-23T02:33:01;7.30;1.00
15656;DHT22;7928;43.614;1.456;2024-02-23T02:35:28;7.30;1.00
15656;DHT22;7928;43.614;1.456;2024-02-23T02:37:55;7.30;1.00
15656;DHT22;7928;43.614;1.456;2024-02-23T02:40:22;7.20;1.00
15656;DHT22;7928;43.614;1.456;2024-02-23T02:42:49;7.20;1.00
15656;DHT22;7928;43.614;1.456;2024-02-23T02:45:17;7.20;1.00
15656;DHT22;7928;43.614;1.456;2024-02-23T02:47:44;7.20;1.00
15656;DHT22;7928;43.614;1.456;2024-02-23T02:50:11;7.30;1.00
15656;DHT22;7928;43.614;1.456;2024-02-23T02:52:38;7.30;1.00
15656;DHT22;7928;43.614;1.456;2024-02-23T02:55:05;7.40;1.00
15656;DHT22;7928;43.614;1.456;2024-02-23T02:57:32;7.30;1.00
15656;DHT22;7928;43.614;1.456;2024-02-23T03:00:01;7.30;1.00
15656;DHT22;7928;43.614;1.456;2024-02-23T03:02:31;7.20;1.00
15656;DHT22;7928;43.614;1.456;2024-02-23T03:04:58;7.20;1.00
15656;DHT22;7928;43.614;1.456;2024-02-23T03:07:25;7.20;1.00
15656;DHT22;7928;43.614;1.456;2024-02-23T03:09:52;7.20;1.00
15656;DHT22;7928;43.614;1.456;2024-02-23T03:12:20;7.10;1.00
15656;DHT22;7928;43.614;1.456;2024-02-23T03:14:47;7.10;1.00
15656;DHT22;7928;43.614;1.456;2024-02-23T03:17:14;7.10;1.00
15656;DHT22;7928;43.614;1.456;2024-02-23T03:19:42;7.00;1.00
15656;DHT22;7928;43.614;1.456;2024-02-23T03:22:09;7.00;1.00
15656;DHT22;7928;43.614;1.456;2024-02-23T03:24:36;7.00;1.00
15656;DHT22;7928;43.614;1.456;2024-02-23T03:27:03;7.10;1.00
15656;DHT22;7928;43.614;1.456;2024-02-23T03:29:30;7.10;1.00
15656;DHT22;7928;43.614;1.456;2024-02-23T03:31:57;7.10;1.00
15656;DHT22;7928;43.614;1.456;2024-02-23T03:34:25;7.10;1.00
15656;DHT22;7928;43.614;1.456;2024-02-23T03:36:53;7.10;1.00
15656;DHT22;7928;43.614;1.456;2024-02-23T03:39:20;7.10;1.00
15656;DHT22;7928;43.614;1.456;2024-02-23T03:41:47;7.00;1.00
15656;DHT22;7928;43.614;1.456;2024-02-23T03:44:14;7.00;1.00
15656;DHT22;7928;43.614;1.456;2024-02-23T03:46:41;7.00;1.00
15656;DHT22;7928;43.614;1.456;2024-02-23T03:49:08;7.00;1.00
15656;DHT22;7928;43.614;1.456;2024-02-23T03:51:35;6.90;1.00
15656;DHT22;7928;43.614;1.456;2024-02-23T03:54:06;7.00;1.00
15656;DHT22;7928;43.614;1.456;2024-02-23T03:56:38;6.90;1.00
15656;DHT22;7928;43.614;1.456;2024-02-23T03:59:06;6.90;1.00
15656;DHT22;7928;43.614;1.456;2024-02-23T04:01:35;6.90;1.00
15656;DHT22;7928;43.614;1.456;2024-02-23T04:04:02;6.80;1.00
15656;DHT22;7928;43.614;1.456;2024-02-23T04:06:29;6.80;1.00
15656;DHT22;7928;43.614;1.456;2024-02-23T04:08:56;6.80;1.00
15656;DHT22;7928;43.614;1.456;2024-02-23T04:11:25;6.80;1.00
15656;DHT22;7928;43.614;1.456;2024-02-23T04:13:52;6.80;1.00
15656;DHT22;7928;43.614;1.456;2024-02-23T04:16:22;6.80;1.00
15656;DHT22;7928;43.614;1.456;2024-02-23T04:18:50;6.70;1.00
15656;DHT22;7928;43.614;1.456;2024-02-23T04:21:20;6.80;1.00
15656;DHT22;7928;43.614;1.456;2024-02-23T04:23:47;6.80;1.00
15656;DHT22;7928;43.614;1.456;2024-02-23T04:26:14;6.80;1.00
15656;DHT22;7928;43.614;1.456;2024-02-23T04:28:42;6.80;1.00
15656;DHT22;7928;43.614;1.456;2024-02-23T04:31:10;6.80;1.00
15656;DHT22;7928;43.614;1.456;2024-02-23T04:33:37;6.80;1.00
15656;DHT22;7928;43.614;1.456;2024-02-23T04:36:04;6.80;1.00
15656;DHT22;7928;43.614;1.456;2024-02-23T04:38:32;6.80;1.00
15656;DHT22;7928;43.614;1.456;2024-02-23T04:41:02;6.80;1.00
15656;DHT22;7928;43.614;1.456;2024-02-23T04:43:29;6.80;1.00
15656;DHT22;7928;43.614;1.456;2024-02-23T04:45:58;6.80;1.00
15656;DHT22;7928;43.614;1.456;2024-02-23T04:48:25;6.80;1.00
15656;DHT22;7928;43.614;1.456;2024-02-23T04:50:52;6.80;1.00
15656;DHT22;7928;43.614;1.456;2024-02-23T04:53:19;6.90;1.00
15656;DHT22;7928;43.614;1.456;2024-02-23T04:55:46;6.90;1.00
15656;DHT22;7928;43.614;1.456;2024-02-23T04:58:14;6.80;1.00
15656;DHT22;7928;43.614;1.456;2024-02-23T05:00:41;6.80;1.00
15656;DHT22;7928;43.614;1.456;2024-02-23T05:03:09;6.80;1.00
15656;DHT22;7928;43.614;1.456;2024-02-23T05:05:36;6.80;1.00
15656;DHT22;7928;43.614;1.456;2024-02-23T05:08:04;6.70;1.00
15656;DHT22;7928;43.614;1.456;2024-02-23T05:10:31;6.70;1.00
15656;DHT22;7928;43.614;1.456;2024-02-23T05:12:58;6.70;1.00
15656;DHT22;7928;43.614;1.456;2024-02-23T05:15:25;6.70;1.00
15656;DHT22;7928;43.614;1.456;2024-02-23T05:17:52;6.60;1.00
15656;DHT22;7928;43.614;1.456;2024-02-23T05:20:20;6.60;1.00
15656;DHT22;7928;43.614;1.456;2024-02-23T05:22:47;6.60;1.00
15656;DHT22;7928;43.614;1.456;2024-02-23T05:25:14;6.60;1.00
15656;DHT22;7928;43.614;1.456;2024-02-23T05:27:41;6.60;1.00
15656;DHT22;7928;43.614;1.456;2024-02-23T05:30:09;6.60;1.00
15656;DHT22;7928;43.614;1.456;2024-02-23T05:32:37;6.60;1.00
15656;DHT22;7928;43.614;1.456;2024-02-23T05:35:05;6.50;1.00
15656;DHT22;7928;43.614;1.456;2024-02-23T05:37:34;6.60;1.00
15656;DHT22;7928;43.614;1.456;2024-02-23T05:40:01;6.60;1.00
15656;DHT22;7928;43.614;1.456;2024-02-23T05:42:32;6.70;1.00
15656;DHT22;7928;43.614;1.456;2024-02-23T05:44:59;6.80;1.00
15656;DHT22;7928;43.614;1.456;2024-02-23T05:47:26;6.90;1.00
15656;DHT22;7928;43.614;1.456;2024-02-23T05:49:53;6.90;1.00
15656;DHT22;7928;43.614;1.456;2024-02-23T05:52:20;6.80;1.00
15656;DHT22;7928;43.614;1.456;2024-02-23T05:54:48;6.80;1.00
15656;DHT22;7928;43.614;1.456;2024-02-23T05:57:17;6.80;1.00
15656;DHT22;7928;43.614;1.456;2024-02-23T05:59:44;6.80;1.00
15656;DHT22;7928;43.614;1.456;2024-02-23T06:02:11;6.90;1.00
15656;DHT22;7928;43.614;1.456;2024-02-23T06:04:40;6.70;1.00
15656;DHT22;7928;43.614;1.456;2024-02-23T06:07:07;6.90;1.00
15656;DHT22;7928;43.614;1.456;2024-02-23T06:09:34;7.00;1.00
15656;DHT22;7928;43.614;1.456;2024-02-23T06:12:02;7.00;1.00
15656;DHT22;7928;43.614;1.456;2024-02-23T06:14:29;7.10;1.00
15656;DHT22;7928;43.614;1.456;2024-02-23T06:16:56;7.10;1.00
15656;DHT22;7928;43.614;1.456;2024-02-23T06:19:24;7.10;1.00
15656;DHT22;7928;43.614;1.456;2024-02-23T06:21:51;7.10;1.00
15656;DHT22;7928;43.614;1.456;2024-02-23T06:24:18;7.20;1.00
15656;DHT22;7928;43.614;1.456;2024-02-23T06:26:45;7.10;1.00
15656;DHT22;7928;43.614;1.456;2024-02-23T06:29:15;7.10;1.00
15656;DHT22;7928;43.614;1.456;2024-02-23T06:31:42;7.10;1.00
15656;DHT22;7928;43.614;1.456;2024-02-23T06:34:14;7.10;1.00
15656;DHT22;7928;43.614;1.456;2024-02-23T06:36:41;7.20;1.00
15656;DHT22;7928;43.614;1.456;2024-02-23T06:39:08;7.20;7.30
15656;DHT22;7928;43.614;1.456;2024-02-23T06:41:36;7.20;18.30
15656;DHT22;7928;43.614;1.456;2024-02-23T06:44:04;7.20;26.10
15656;DHT22;7928;43.614;1.456;2024-02-23T06:46:32;7.20;57.40
15656;DHT22;7928;43.614;1.456;2024-02-23T06:48:59;7.20;49.30
15656;DHT22;7928;43.614;1.456;2024-02-23T06:51:26;7.10;52.70
15656;DHT22;7928;43.614;1.456;2024-02-23T06:53:53;7.10;92.80
15656;DHT22;7928;43.614;1.456;2024-02-23T06:56:22;7.10;95.20
15656;DHT22;7928;43.614;1.456;2024-02-23T06:58:49;7.00;95.20
15656;DHT22;7928;43.614;1.456;2024-02-23T07:01:16;7.10;96.20
15656;DHT22;7928;43.614;1.456;2024-02-23T07:03:44;7.20;99.90
15656;DHT22;7928;43.614;1.456;2024-02-23T07:06:11;7.20;99.90
15656;DHT22;7928;43.614;1.456;2024-02-23T07:08:38;7.30;94.60
15656;DHT22;7928;43.614;1.456;2024-02-23T07:11:05;7.40;99.90
15656;DHT22;7928;43.614;1.456;2024-02-23T07:13:32;7.30;99.90
15656;DHT22;7928;43.614;1.456;2024-02-23T07:16:00;7.30;99.90
15656;DHT22;7928;43.614;1.456;2024-02-23T07:18:27;7.20;1.00
15656;DHT22;7928;43.614;1.456;2024-02-23T07:20:56;7.20;1.00
15656;DHT22;7928;43.614;1.456;2024-02-23T07:23:23;7.30;1.00
15656;DHT22;7928;43.614;1.456;2024-02-23T07:25:50;7.30;1.00
15656;DHT22;7928;43.614;1.456;2024-02-23T07:28:17;7.20;1.00
15656;DHT22;7928;43.614;1.456;2024-02-23T07:30:45;7.20;1.00
15656;DHT22;7928;43.614;1.456;2024-02-23T07:33:12;7.20;1.00
15656;DHT22;7928;43.614;1.456;2024-02-23T07:35:39;7.20;1.00
15656;DHT22;7928;43.614;1.456;2024-02-23T07:38:08;7.30;1.00
15656;DHT22;7928;43.614;1.456;2024-02-23T07:40:35;7.40;1.00
15656;DHT22;7928;43.614;1.456;2024-02-23T07:43:02;7.30;1.00
15656;DHT22;7928;43.614;1.456;2024-02-23T07:45:29;7.20;1.00
15656;DHT22;7928;43.614;1.456;2024-02-23T07:47:56;7.30;1.00
15656;DHT22;7928;43.614;1.456;2024-02-23T07:50:23;7.30;1.00
15656;DHT22;7928;43.614;1.456;2024-02-23T07:52:50;7.40;1.00
15656;DHT22;7928;43.614;1.456;2024-02-23T07:55:18;7.40;1.00
15656;DHT22;7928;43.614;1.456;2024-02-23T07:57:45;7.40;75.60
15656;DHT22;7928;43.614;1.456;2024-02-23T08:00:13;7.40;99.90
15656;DHT22;7928;43.614;1.456;2024-02-23T08:02:40;7.50;99.90
15656;DHT22;7928;43.614;1.456;2024-02-23T08:05:07;7.60;99.90
15656;DHT22;7928;43.614;1.456;2024-02-23T08:07:35;7.80;99.90
15656;DHT22;7928;43.614;1.456;2024-02-23T08:10:02;8.00;99.90
15656;DHT22;7928;43.614;1.456;2024-02-23T08:12:32;8.20;99.90
15656;DHT22;7928;43.614;1.456;2024-02-23T08:14:59;8.30;99.90
15656;DHT22;7928;43.614;1.456;2024-02-23T08:17:26;8.50;99.90
15656;DHT22;7928;43.614;1.456;2024-02-23T08:19:53;8.60;99.90
15656;DHT22;7928;43.614;1.456;2024-02-23T08:22:20;8.80;99.90
15656;DHT22;7928;43.614;1.456;2024-02-23T08:24:49;9.00;99.90
15656;DHT22;7928;43.614;1.456;2024-02-23T08:27:16;9.10;99.90
15656;DHT22;7928;43.614;1.456;2024-02-23T08:29:44;9.00;99.90
15656;DHT22;7928;43.614;1.456;2024-02-23T08:32:11;9.00;99.90
15656;DHT22;7928;43.614;1.456;2024-02-23T08:34:39;8.90;99.90
15656;DHT22;7928;43.614;1.456;2024-02-23T08:37:06;8.90;99.90
15656;DHT22;7928;43.614;1.456;2024-02-23T08:39:33;8.80;99.90
15656;DHT22;7928;43.614;1.456;2024-02-23T08:42:02;8.90;99.90
15656;DHT22;7928;43.614;1.456;2024-02-23T08:44:30;8.90;99.90
15656;DHT22;7928;43.614;1.456;2024-02-23T08:46:58;8.80;99.90
15656;DHT22;7928;43.614;1.456;2024-02-23T08:49:25;8.90;99.90
15656;DHT22;7928;43.614;1.456;2024-02-23T08:51:53;8.90;99.90
15656;DHT22;7928;43.614;1.456;2024-02-23T08:54:21;8.90;99.90
15656;DHT22;7928;43.614;1.456;2024-02-23T08:56:48;8.90;99.90
15656;DHT22;7928;43.614;1.456;2024-02-23T08:59:15;8.80;99.90
15656;DHT22;7928;43.614;1.456;2024-02-23T09:01:42;9.00;99.90
15656;DHT22;7928;43.614;1.456;2024-02-23T09:04:11;9.10;99.90
15656;DHT22;7928;43.614;1.456;2024-02-23T09:06:38;9.30;99.90
15656;DHT22;7928;43.614;1.456;2024-02-23T09:09:05;9.20;99.90
15656;DHT22;7928;43.614;1.456;2024-02-23T09:11:35;9.20;99.90
15656;DHT22;7928;43.614;1.456;2024-02-23T09:14:03;9.20;99.90
15656;DHT22;7928;43.614;1.456;2024-02-23T09:16:30;9.10;99.90
15656;DHT22;7928;43.614;1.456;2024-02-23T09:18:57;9.00;99.90
15656;DHT22;7928;43.614;1.456;2024-02-23T09:21:26;9.20;99.90
15656;DHT22;7928;43.614;1.456;2024-02-23T09:23:53;9.60;99.90
15656;DHT22;7928;43.614;1.456;2024-02-23T09:26:19;9.90;99.90
15656;DHT22;7928;43.614;1.456;2024-02-23T09:28:46;9.70;99.90
15656;DHT22;7928;43.614;1.456;2024-02-23T09:31:13;9.60;99.90
15656;DHT22;7928;43.614;1.456;2024-02-23T09:33:40;9.60;99.90
15656;DHT22;7928;43.614;1.456;2024-02-23T09:36:09;9.70;99.90
15656;DHT22;7928;43.614;1.456;2024-02-23T09:38:37;9.50;99.90
15656;DHT22;7928;43.614;1.456;2024-02-23T09:41:05;9.40;99.90
15656;DHT22;7928;43.614;1.456;2024-02-23T09:43:38;9.50;99.90
15656;DHT22;7928;43.614;1.456;2024-02-23T09:46:05;9.50;99.90
15656;DHT22;7928;43.614;1.456;2024-02-23T09:48:33;9.50;99.90
15656;DHT22;7928;43.614;1.456;2024-02-23T09:51:01;9.20;99.90
15656;DHT22;7928;43.614;1.456;2024-02-23T09:53:28;9.20;99.90
15656;DHT22;7928;43.614;1.456;2024-02-23T09:55:58;9.40;99.90
15656;DHT22;7928;43.614;1.456;2024-02-23T09:58:26;9.40;99.90
15656;DHT22;7928;43.614;1.456;2024-02-23T10:00:56;9.40;99.90
15656;DHT22;7928;43.614;1.456;2024-02-23T10:03:24;9.40;99.90
15656;DHT22;7928;43.614;1.456;2024-02-23T10:05:54;9.20;99.90
15656;DHT22;7928;43.614;1.456;2024-02-23T10:08:21;9.10;99.90
15656;DHT22;7928;43.614;1.456;2024-02-23T10:10:48;9.10;99.90
15656;DHT22;7928;43.614;1.456;2024-02-23T10:13:19;8.90;99.90
15656;DHT22;7928;43.614;1.456;2024-02-23T10:15:47;8.90;99.90
15656;DHT22;7928;43.614;1.456;2024-02-23T10:18:14;8.90;99.90
15656;DHT22;7928;43.614;1.456;2024-02-23T10:20:41;8.80;99.90
15656;DHT22;7928;43.614;1.456;2024-02-23T10:23:08;8.70;99.90
15656;DHT22;7928;43.614;1.456;2024-02-23T10:25:36;8.50;99.90
15656;DHT22;7928;43.614;1.456;2024-02-23T10:28:03;8.50;99.90
15656;DHT22;7928;43.614;1.456;2024-02-23T10:30:32;8.60;99.90
15656;DHT22;7928;43.614;1.456;2024-02-23T10:32:59;8.60;99.90
15656;DHT22;7928;43.614;1.456;2024-02-23T10:35:26;8.40;99.90
15656;DHT22;7928;43.614;1.456;2024-02-23T10:37:54;8.50;99.90
15656;DHT22;7928;43.614;1.456;2024-02-23T10:40:22;8.60;99.90
15656;DHT22;7928;43.614;1.456;2024-02-23T10:42:50;8.50;99.90
15656;DHT22;7928;43.614;1.456;2024-02-23T10:45:20;8.60;99.90
15656;DHT22;7928;43.614;1.456;2024-02-23T10:47:50;8.70;99.90
15656;DHT22;7928;43.614;1.456;2024-02-23T10:50:18;8.60;99.90
15656;DHT22;7928;43.614;1.456;2024-02-23T10:52:46;8.60;99.90
15656;DHT22;7928;43.614;1.456;2024-02-23T10:55:14;8.80;99.90
15656;DHT22;7928;43.614;1.456;2024-02-23T10:57:42;8.90;99.90
15656;DHT22;7928;43.614;1.456;2024-02-23T11:00:11;9.10;99.90
15656;DHT22;7928;43.614;1.456;2024-02-23T11:02:41;9.30;99.90
15656;DHT22;7928;43.614;1.456;2024-02-23T11:05:12;9.60;99.90
15656;DHT22;7928;43.614;1.456;2024-02-23T11:07:39;10.20;99.90
15656;DHT22;7928;43.614;1.456;2024-02-23T11:10:07;10.50;99.90
15656;DHT22;7928;43.614;1.456;2024-02-23T11:12:35;10.20;99.90
15656;DHT22;7928;43.614;1.456;2024-02-23T11:15:02;9.70;99.90
15656;DHT22;7928;43.614;1.456;2024-02-23T11:17:32;9.60;99.90
15656;DHT22;7928;43.614;1.456;2024-02-23T11:20:02;9.50;99.90
15656;DHT22;7928;43.614;1.456;2024-02-23T11:22:32;9.60;99.90
15656;DHT22;7928;43.614;1.456;2024-02-23T11:25:01;9.70;99.90
15656;DHT22;7928;43.614;1.456;2024-02-23T11:27:31;10.00;99.90
15656;DHT22;7928;43.614;1.456;2024-02-23T11:29:59;9.80;99.90
15656;DHT22;7928;43.614;1.456;2024-02-23T11:32:37;9.50;99.90
15656;DHT22;7928;43.614;1.456;2024-02-23T11:35:06;9.40;99.90
15656;DHT22;7928;43.614;1.456;2024-02-23T11:37:45;9.20;99.90
15656;DHT22;7928;43.614;1.456;2024-02-23T11:40:13;8.70;99.90
15656;DHT22;7928;43.614;1.456;2024-02-23T11:42:40;8.40;99.90
15656;DHT22;7928;43.614;1.456;2024-02-23T11:45:08;8.30;1.00
15656;DHT22;7928;43.614;1.456;2024-02-23T11:47:35;8.30;1.00
15656;DHT22;7928;43.614;1.456;2024-02-23T11:50:03;8.10;1.00
15656;DHT22;7928;43.614;1.456;2024-02-23T11:52:31;8.10;1.00
15656;DHT22;7928;43.614;1.456;2024-02-23T11:55:00;8.00;1.00
15656;DHT22;7928;43.614;1.456;2024-02-23T11:57:28;8.00;1.00
15656;DHT22;7928;43.614;1.456;2024-02-23T11:59:55;8.00;1.00
15656;DHT22;7928;43.614;1.456;2024-02-23T12:02:24;8.00;1.00
15656;DHT22;7928;43.614;1.456;2024-02-23T12:04:50;8.30;1.00
15656;DHT22;7928;43.614;1.456;2024-02-23T12:07:18;8.30;1.00
15656;DHT22;7928;43.614;1.456;2024-02-23T12:09:46;8.60;1.00
15656;DHT22;7928;43.614;1.456;2024-02-23T12:12:15;9.10;1.00
15656;DHT22;7928;43.614;1.456;2024-02-23T12:14:42;9.90;1.00
15656;DHT22;7928;43.614;1.456;2024-02-23T12:17:09;11.00;99.90
15656;DHT22;7928;43.614;1.456;2024-02-23T12:19:38;12.60;85.20
15656;DHT22;7928;43.614;1.456;2024-02-23T12:22:06;13.40;1.00
15656;DHT22;7928;43.614;1.456;2024-02-23T12:24:34;14.30;1.00
15656;DHT22;7928;43.614;1.456;2024-02-23T12:27:01;14.80;99.90
15656;DHT22;7928;43.614;1.456;2024-02-23T12:29:29;14.30;1.00
15656;DHT22;7928;43.614;1.456;2024-02-23T12:32:03;14.10;1.00
15656;DHT22;7928;43.614;1.456;2024-02-23T12:34:30;12.50;1.00
15656;DHT22;7928;43.614;1.456;2024-02-23T12:36:57;12.00;42.60
15656;DHT22;7928;43.614;1.456;2024-02-23T12:39:24;11.50;99.90
15656;DHT22;7928;43.614;1.456;2024-02-23T12:41:52;11.80;1.00
15656;DHT22;7928;43.614;1.456;2024-02-23T12:44:19;12.80;99.90
15656;DHT22;7928;43.614;1.456;2024-02-23T12:46:47;12.50;78.90
15656;DHT22;7928;43.614;1.456;2024-02-23T12:49:14;12.60;1.00
15656;DHT22;7928;43.614;1.456;2024-02-23T12:51:41;13.20;99.90
15656;DHT22;7928;43.614;1.456;2024-02-23T12:54:09;13.90;1.00
15656;DHT22;7928;43.614;1.456;2024-02-23T12:56:36;14.30;99.90
15656;DHT22;7928;43.614;1.456;2024-02-23T12:59:03;14.60;58.10
15656;DHT22;7928;43.614;1.456;2024-02-23T13:01:30;15.70;1.00
15656;DHT22;7928;43.614;1.456;2024-02-23T13:04:03;15.40;1.00
15656;DHT22;7928;43.614;1.456;2024-02-23T13:06:35;15.60;1.00
15656;DHT22;7928;43.614;1.456;2024-02-23T13:09:02;16.20;99.90
15656;DHT22;7928;43.614;1.456;2024-02-23T13:11:30;17.10;38.20
15656;DHT22;7928;43.614;1.456;2024-02-23T13:13:56;17.90;1.00
15656;DHT22;7928;43.614;1.456;2024-02-23T13:16:24;18.40;1.00
15656;DHT22;7928;43.614;1.456;2024-02-23T13:18:51;19.60;93.20
15656;DHT22;7928;43.614;1.456;2024-02-23T13:21:19;18.60;1.00
15656;DHT22;7928;43.614;1.456;2024-02-23T13:23:46;16.30;99.90
15656;DHT22;7928;43.614;1.456;2024-02-23T13:26:13;15.40;1.00
15656;DHT22;7928;43.614;1.456;2024-02-23T13:28:41;13.90;98.20
15656;DHT22;7928;43.614;1.456;2024-02-23T13:31:08;12.80;1.00
15656;DHT22;7928;43.614;1.456;2024-02-23T13:33:35;12.40;1.00
15656;DHT22;7928;43.614;1.456;2024-02-23T13:36:03;12.40;1.00
15656;DHT22;7928;43.614;1.456;2024-02-23T13:38:31;12.50;1.00
15656;DHT22;7928;43.614;1.456;2024-02-23T13:41:03;12.30;1.00
15656;DHT22;7928;43.614;1.456;2024-02-23T13:43:30;11.80;1.00
15656;DHT22;7928;43.614;1.456;2024-02-23T13:45:59;11.80;22.50
15656;DHT22;7928;43.614;1.456;2024-02-23T13:48:26;11.90;51.40
15656;DHT22;7928;43.614;1.456;2024-02-23T13:50:53;12.20;99.90
15656;DHT22;7928;43.614;1.456;2024-02-23T13:53:20;13.10;1.00
15656;DHT22;7928;43.614;1.456;2024-02-23T13:55:48;13.60;1.00
15656;DHT22;7928;43.614;1.456;2024-02-23T13:58:15;14.20;1.00
15656;DHT22;7928;43.614;1.456;2024-02-23T14:00:43;14.30;1.00
15656;DHT22;7928;43.614;1.456;2024-02-23T14:03:16;15.00;1.00
15656;DHT22;7928;43.614;1.456;2024-02-23T14:05:43;13.80;1.00
15656;DHT22;7928;43.614;1.456;2024-02-23T14:08:11;13.10;1.00
15656;DHT22;7928;43.614;1.456;2024-02-23T14:10:39;12.80;1.00
15656;DHT22;7928;43.614;1.456;2024-02-23T14:13:10;12.40;1.00
15656;DHT22;7928;43.614;1.456;2024-02-23T14:15:37;11.90;1.00
15656;DHT22;7928;43.614;1.456;2024-02-23T14:18:04;11.60;99.90
15656;DHT22;7928;43.614;1.456;2024-02-23T14:20:31;10.90;1.00
15656;DHT22;7928;43.614;1.456;2024-02-23T14:22:58;10.50;1.00
15656;DHT22;7928;43.614;1.456;2024-02-23T14:25:25;10.20;99.90
15656;DHT22;7928;43.614;1.456;2024-02-23T14:27:52;10.00;1.00
15656;DHT22;7928;43.614;1.456;2024-02-23T14:30:22;10.20;99.90
15656;DHT22;7928;43.614;1.456;2024-02-23T14:32:49;10.40;99.90
15656;DHT22;7928;43.614;1.456;2024-02-23T14:35:16;11.00;1.00
15656;DHT22;7928;43.614;1.456;2024-02-23T14:37:43;11.20;1.00
15656;DHT22;7928;43.614;1.456;2024-02-23T14:40:11;11.50;1.00
15656;DHT22;7928;43.614;1.456;2024-02-23T14:42:39;11.80;99.90
15656;DHT22;7928;43.614;1.456;2024-02-23T14:45:07;11.70;1.00
15656;DHT22;7928;43.614;1.456;2024-02-23T14:47:36;11.30;99.90
15656;DHT22;7928;43.614;1.456;2024-02-23T14:50:03;11.40;1.00
15656;DHT22;7928;43.614;1.456;2024-02-23T14:52:30;11.70;1.00
15656;DHT22;7928;43.614;1.456;2024-02-23T14:54:57;14.80;1.00
15656;DHT22;7928;43.614;1.456;2024-02-23T14:57:24;17.10;1.00
15656;DHT22;7928;43.614;1.456;2024-02-23T14:59:51;18.00;99.90
15656;DHT22;7928;43.614;1.456;2024-02-23T15:02:19;16.50;1.00
15656;DHT22;7928;43.614;1.456;2024-02-23T15:04:48;14.90;1.00
15656;DHT22;7928;43.614;1.456;2024-02-23T15:07:15;16.50;1.00
15656;DHT22;7928;43.614;1.456;2024-02-23T15:09:43;17.10;1.00
15656;DHT22;7928;43.614;1.456;2024-02-23T15:12:10;16.10;1.00
15656;DHT22;7928;43.614;1.456;2024-02-23T15:14:37;14.30;1.00
15656;DHT22;7928;43.614;1.456;2024-02-23T15:17:04;13.90;1.00
15656;DHT22;7928;43.614;1.456;2024-02-23T15:19:31;12.90;1.00
15656;DHT22;7928;43.614;1.456;2024-02-23T15:22:00;15.10;1.00
15656;DHT22;7928;43.614;1.456;2024-02-23T15:24:27;14.10;1.00
15656;DHT22;7928;43.614;1.456;2024-02-23T15:26:54;12.90;1.00
15656;DHT22;7928;43.614;1.456;2024-02-23T15:29:20;12.30;1.00
15656;DHT22;7928;43.614;1.456;2024-02-23T15:31:47;12.00;1.00
15656;DHT22;7928;43.614;1.456;2024-02-23T15:34:14;11.60;1.00
15656;DHT22;7928;43.614;1.456;2024-02-23T15:36:41;11.80;46.80
15656;DHT22;7928;43.614;1.456;2024-02-23T15:39:09;12.10;1.00
15656;DHT22;7928;43.614;1.456;2024-02-23T15:41:37;12.40;47.90
15656;DHT22;7928;43.614;1.456;2024-02-23T15:44:04;12.30;1.00
15656;DHT22;7928;43.614;1.456;2024-02-23T15:46:31;12.60;1.00
15656;DHT22;7928;43.614;1.456;2024-02-23T15:48:58;13.50;1.00
15656;DHT22;7928;43.614;1.456;2024-02-23T15:51:25;12.80;1.00
15656;DHT22;7928;43.614;1.456;2024-02-23T15:53:52;12.50;1.00
15656;DHT22;7928;43.614;1.456;2024-02-23T15:56:21;12.20;1.00
15656;DHT22;7928;43.614;1.456;2024-02-23T15:58:48;12.70;1.00
15656;DHT22;7928;43.614;1.456;2024-02-23T16:01:15;12.50;1.00
15656;DHT22;7928;43.614;1.456;2024-02-23T16:03:42;12.00;1.00
15656;DHT22;7928;43.614;1.456;2024-02-23T16:06:09;11.50;1.00
15656;DHT22;7928;43.614;1.456;2024-02-23T16:08:40;11.30;1.00